Time;durP1;ratioP1;P1;durP2;ratioP2;P2;SDS_P1;SDS_P2;PMS_P1;PMS_P2;Temp;Humidity;BMP_temperature;BMP_pressure;BME280_temperature;BME280_humidity;BME280_pressure;Samples;Min_cycle;Max_cycle;Signal;HPM_P1;HPM_P2
2021/10/14 00:02:17;;;;;;;32.98;19.42;;;;;;;4.25;79.50;100756.73;1790557;80;27463;-63
2021/10/14 00:04:43;;;;;;;34.63;19.90;;;;;;;4.30;79.36;100754.10;1790549;79;25434;-64
2021/10/14 00:07:10;;;;;;;30.60;18.48;;;;;;;4.35;79.58;100753.89;1790669;80;25447;-63
2021/10/14 00:09:37;;;;;;;34.83;19.70;;;;;;;4.38;79.54;100748.82;1790595;78;25674;-63
2021/10/14 00:12:05;;;;;;;33.85;20.52;;;;;;;4.42;79.66;100753.93;1790693;80;25684;-62
2021/10/14 00:14:32;;;;;;;30.72;19.17;;;;;;;4.46;79.68;100736.81;1790642;80;27544;-63
2021/10/14 00:16:58;;;;;;;31.02;18.30;;;;;;;4.50;79.62;100744.63;1790562;80;25501;-62
2021/10/14 00:19:25;;;;;;;32.70;20.10;;;;;;;4.53;79.55;100743.28;1790651;80;25676;-62
2021/10/14 00:21:53;;;;;;;32.83;19.00;;;;;;;4.56;79.86;100736.88;1790643;80;25667;-62
2021/10/14 00:24:21;;;;;;;29.43;18.37;;;;;;;4.60;79.95;100743.36;1790875;80;25678;-62
2021/10/14 00:26:48;;;;;;;33.70;18.87;;;;;;;4.61;79.47;100744.95;1790646;79;27501;-62
2021/10/14 00:29:15;;;;;;;29.40;17.85;;;;;;;4.62;79.40;100747.91;1790574;80;25505;-62
2021/10/14 00:31:41;;;;;;;30.23;18.95;;;;;;;4.63;79.27;100744.19;1790641;80;25594;-63
2021/10/14 00:34:08;;;;;;;31.07;18.73;;;;;;;4.64;79.06;100744.98;1790619;80;25662;-63
2021/10/14 00:36:35;;;;;;;31.65;19.12;;;;;;;4.64;79.06;100747.66;1790669;80;25510;-62
2021/10/14 00:39:02;;;;;;;28.32;17.45;;;;;;;4.63;78.83;100751.39;1790592;78;27495;-62
2021/10/14 00:41:29;;;;;;;29.45;17.62;;;;;;;4.60;78.40;100752.73;1790508;79;25703;-62
2021/10/14 00:43:57;;;;;;;30.52;17.80;;;;;;;4.57;78.33;100751.10;1790630;80;25681;-62
2021/10/14 00:46:25;;;;;;;27.73;17.67;;;;;;;4.54;78.24;100752.95;1790599;80;25501;-62
2021/10/14 00:48:53;;;;;;;28.98;17.75;;;;;;;4.49;78.17;100751.86;1790645;80;25528;-62
2021/10/14 00:51:20;;;;;;;33.48;18.12;;;;;;;4.44;78.27;100757.19;1790618;80;27466;-62
2021/10/14 00:53:48;;;;;;;37.15;18.17;;;;;;;4.39;78.27;100757.66;1790555;80;25627;-62
2021/10/14 00:56:16;;;;;;;31.65;18.25;;;;;;;4.48;80.91;100749.44;1790620;80;25635;-63
2021/10/14 00:58:43;;;;;;;28.90;18.57;;;;;;;4.53;80.51;100754.00;1790572;80;25601;-63
2021/10/14 01:01:09;;;;;;;36.13;19.05;;;;;;;4.52;79.86;100751.06;1790628;80;25674;-63
2021/10/14 01:03:36;;;;;;;30.92;18.98;;;;;;;4.55;81.30;100746.00;1790565;80;27584;-63
2021/10/14 01:06:03;;;;;;;26.52;17.48;;;;;;;4.56;80.41;100746.25;1790510;80;25658;-63
2021/10/14 01:08:30;;;;;;;28.32;18.90;;;;;;;4.52;79.68;100740.35;1790619;80;25489;-62
2021/10/14 01:10:57;;;;;;;28.07;17.95;;;;;;;4.46;79.03;100735.47;1790534;78;25619;-62
2021/10/14 01:13:24;;;;;;;27.25;17.17;;;;;;;4.41;78.83;100740.78;1790642;80;25490;-63
2021/10/14 01:15:51;;;;;;;24.32;17.23;;;;;;;4.34;78.39;100742.88;1790555;80;27498;-62
2021/10/14 01:18:17;;;;;;;28.92;16.60;;;;;;;4.28;78.31;100748.20;1790523;80;25451;-63
2021/10/14 01:20:44;;;;;;;27.07;16.23;;;;;;;4.19;78.25;100739.03;1790611;80;25528;-62
2021/10/14 01:23:12;;;;;;;29.42;17.00;;;;;;;4.13;78.21;100740.04;1790522;80;26109;-63
2021/10/14 01:25:39;;;;;;;28.45;18.15;;;;;;;4.05;77.87;100745.34;1790591;80;25607;-63
2021/10/14 01:28:05;;;;;;;26.87;17.25;;;;;;;3.97;77.86;100743.13;1790585;80;27547;-63
2021/10/14 01:30:32;;;;;;;30.02;17.42;;;;;;;3.91;77.93;100741.45;1790508;80;25624;-62
2021/10/14 01:32:59;;;;;;;27.40;16.90;;;;;;;3.85;77.92;100742.48;1790594;80;25459;-63
2021/10/14 01:35:25;;;;;;;28.42;17.67;;;;;;;3.78;78.05;100744.02;1790559;80;25609;-63
2021/10/14 01:37:52;;;;;;;29.57;17.10;;;;;;;3.73;78.16;100739.41;1790615;80;25497;-63
2021/10/14 01:40:19;;;;;;;30.05;17.50;;;;;;;3.68;77.70;100739.36;1790562;78;27499;-62
2021/10/14 01:42:46;;;;;;;28.57;16.48;;;;;;;3.63;77.79;100736.62;1790460;80;25769;-62
2021/10/14 01:45:13;;;;;;;29.95;17.35;;;;;;;3.58;78.06;100735.78;1790579;80;25663;-63
2021/10/14 01:47:40;;;;;;;27.65;16.87;;;;;;;3.52;77.97;100736.23;1790541;80;25683;-63
2021/10/14 01:50:08;;;;;;;29.25;16.82;;;;;;;3.46;77.94;100739.92;1790592;80;25477;-63
2021/10/14 01:52:35;;;;;;;27.25;16.67;;;;;;;3.40;77.92;100742.25;1790591;80;27553;-63
2021/10/14 01:55:03;;;;;;;30.50;16.95;;;;;;;3.35;77.80;100742.98;1790588;80;25601;-63
2021/10/14 01:57:29;;;;;;;26.45;16.62;;;;;;;3.30;77.94;100745.61;1790557;80;25679;-63
2021/10/14 01:59:56;;;;;;;29.27;16.02;;;;;;;3.23;77.93;100753.81;1790619;80;25500;-63
2021/10/14 02:02:22;;;;;;;28.95;16.12;;;;;;;3.19;77.85;100752.70;1786506;79;25445;-63
2021/10/14 02:04:49;;;;;;;25.23;15.98;;;;;;;3.14;78.04;100753.97;1760675;81;27504;-63
2021/10/14 02:07:16;;;;;;;27.80;16.48;;;;;;;3.09;77.95;100756.58;1760565;81;25854;-63
2021/10/14 02:09:42;;;;;;;25.75;16.82;;;;;;;3.03;77.91;100760.23;1760667;81;25617;-63
2021/10/14 02:12:09;;;;;;;28.47;17.73;;;;;;;2.98;77.93;100764.47;1760556;81;25511;-63
2021/10/14 02:14:36;;;;;;;25.75;16.85;;;;;;;2.94;78.14;100765.99;1760622;81;25503;-63
2021/10/14 02:17:03;;;;;;;28.15;16.07;;;;;;;2.90;78.21;100765.41;1760634;81;27822;-63
2021/10/14 02:19:30;;;;;;;23.92;16.07;;;;;;;2.86;77.63;100765.10;1760543;81;25676;-63
2021/10/14 02:21:56;;;;;;;27.90;16.45;;;;;;;2.84;77.99;100775.73;1760594;81;25517;-63
2021/10/14 02:24:23;;;;;;;27.15;16.27;;;;;;;2.79;78.16;100766.61;1760592;81;26193;-63
2021/10/14 02:26:50;;;;;;;27.32;16.57;;;;;;;2.74;78.38;100765.20;1760664;81;25517;-63
2021/10/14 02:29:16;;;;;;;26.85;16.60;;;;;;;2.71;78.00;100774.23;1760618;81;27495;-63
2021/10/14 02:31:43;;;;;;;29.25;16.52;;;;;;;2.69;78.12;100772.30;1760556;81;25683;-63
2021/10/14 02:34:10;;;;;;;26.42;16.12;;;;;;;2.69;78.71;100774.98;1760596;81;25461;-63
2021/10/14 02:36:36;;;;;;;31.62;18.57;;;;;;;2.68;78.86;100770.17;1760602;81;25551;-63
2021/10/14 02:39:04;;;;;;;26.05;17.45;;;;;;;2.68;79.03;100773.38;1760623;81;25640;-63
2021/10/14 02:41:31;;;;;;;32.60;18.15;;;;;;;2.68;78.90;100777.39;1760588;81;27432;-62
2021/10/14 02:43:59;;;;;;;32.73;19.45;;;;;;;2.69;78.76;100782.99;1760521;81;25686;-62
2021/10/14 02:46:26;;;;;;;28.05;18.45;;;;;;;2.67;78.66;100780.56;1760632;81;25605;-63
2021/10/14 02:48:53;;;;;;;30.27;18.27;;;;;;;2.64;78.42;100786.41;1760676;81;25495;-63
2021/10/14 02:51:19;;;;;;;30.70;19.20;;;;;;;2.62;78.10;100785.83;1760739;81;25624;-63
2021/10/14 02:53:46;;;;;;;31.12;19.98;;;;;;;2.60;78.33;100779.92;1760582;81;27484;-62
2021/10/14 02:56:13;;;;;;;26.35;16.95;;;;;;;2.56;78.29;100786.28;1760486;81;25614;-63
2021/10/14 02:58:39;;;;;;;26.30;16.82;;;;;;;2.51;77.68;100791.55;1760624;81;25636;-62
2021/10/14 03:01:06;;;;;;;28.60;15.65;;;;;;;2.48;77.50;100801.37;1760531;81;25627;-61
2021/10/14 03:03:33;;;;;;;26.45;16.30;;;;;;;2.43;77.83;100803.45;1774367;79;25543;-61
2021/10/14 03:06:00;;;;;;;31.65;16.67;;;;;;;2.38;77.99;100803.37;1790524;80;27450;-62
2021/10/14 03:08:27;;;;;;;26.57;16.73;;;;;;;2.36;78.28;100807.31;1790431;80;25682;-62
2021/10/14 03:10:54;;;;;;;28.65;17.45;;;;;;;2.35;78.30;100812.36;1790480;78;25710;-62
2021/10/14 03:13:21;;;;;;;26.57;16.82;;;;;;;2.33;78.46;100809.92;1790502;80;25565;-62
2021/10/14 03:15:48;;;;;;;29.75;17.40;;;;;;;2.31;78.47;100813.91;1790549;80;25642;-62
2021/10/14 03:18:15;;;;;;;25.60;16.45;;;;;;;2.28;78.39;100824.52;1790534;80;27493;-62
2021/10/14 03:20:41;;;;;;;22.95;16.15;;;;;;;2.27;78.49;100822.12;1790429;80;25498;-62
2021/10/14 03:23:08;;;;;;;27.85;17.02;;;;;;;2.25;78.33;100823.70;1790578;80;25463;-62
2021/10/14 03:25:35;;;;;;;28.15;17.15;;;;;;;2.26;78.39;100828.50;1790674;80;25659;-62
2021/10/14 03:28:01;;;;;;;25.95;16.73;;;;;;;2.24;78.54;100835.41;1790683;80;25504;-61
2021/10/14 03:30:28;;;;;;;23.00;14.93;;;;;;;2.23;78.38;100832.44;1790689;80;27462;-61
2021/10/14 03:32:54;;;;;;;26.17;16.07;;;;;;;2.22;78.32;100831.64;1790571;80;25834;-61
2021/10/14 03:35:21;;;;;;;23.22;16.27;;;;;;;2.19;77.76;100837.98;1790623;80;25611;-61
2021/10/14 03:37:48;;;;;;;24.65;16.17;;;;;;;2.16;77.86;100841.96;1790647;80;26275;-61
2021/10/14 03:40:15;;;;;;;25.82;16.05;;;;;;;2.12;77.57;100838.13;1790699;78;25428;-61
2021/10/14 03:42:42;;;;;;;26.73;16.27;;;;;;;2.08;77.47;100846.84;1790631;80;27495;-62
2021/10/14 03:45:09;;;;;;;28.52;17.80;;;;;;;2.04;77.31;100843.84;1790582;80;25792;-61
2021/10/14 03:47:36;;;;;;;28.87;16.80;;;;;;;2.00;77.54;100846.72;1790676;80;25562;-62
2021/10/14 03:50:04;;;;;;;31.85;18.12;;;;;;;1.93;78.00;100842.85;1790626;80;25505;-61
2021/10/14 03:52:31;;;;;;;27.42;16.90;;;;;;;1.88;77.97;100837.95;1790710;80;25613;-61
2021/10/14 03:54:57;;;;;;;28.38;17.10;;;;;;;1.82;77.98;100839.19;1790659;80;27497;-62
2021/10/14 03:57:24;;;;;;;31.57;18.17;;;;;;;1.80;77.94;100839.92;1790544;80;27443;-61
2021/10/14 03:59:51;;;;;;;32.03;18.95;;;;;;;1.76;77.86;100837.45;1790670;80;25643;-61
2021/10/14 04:02:17;;;;;;;34.43;19.87;;;;;;;1.74;78.16;100836.89;1790590;80;25554;-61
2021/10/14 04:04:44;;;;;;;37.53;21.97;;;;;;;1.72;78.41;100836.82;1790583;79;25501;-61
2021/10/14 04:07:11;;;;;;;50.08;22.50;;;;;;;1.71;78.91;100836.02;1790657;80;27490;-61
2021/10/14 04:09:37;;;;;;;47.08;21.62;;;;;;;1.71;79.47;100832.02;1790478;78;26239;-61
2021/10/14 04:12:05;;;;;;;80.57;23.12;;;;;;;1.71;79.70;100839.22;1790639;80;25674;-61
2021/10/14 04:14:32;;;;;;;80.22;21.85;;;;;;;1.70;79.98;100840.26;1790599;80;25606;-61
2021/10/14 04:16:58;;;;;;;87.92;21.42;;;;;;;1.68;80.10;100841.82;1790661;80;25703;-61
2021/10/14 04:19:25;;;;;;;64.35;21.95;;;;;;;1.66;80.42;100844.72;1790653;80;27566;-61
2021/10/14 04:21:51;;;;;;;93.33;23.02;;;;;;;1.65;80.64;100852.45;1790529;80;25814;-62
2021/10/14 04:24:19;;;;;;;44.23;19.90;;;;;;;1.66;80.81;100855.39;1790613;80;25462;-60
2021/10/14 04:26:45;;;;;;;66.02;21.48;;;;;;;1.65;80.83;100851.63;1790605;80;25524;-61
2021/10/14 04:29:12;;;;;;;99.72;22.17;;;;;;;1.66;81.06;100854.05;1790649;80;25476;-60
2021/10/14 04:31:39;;;;;;;74.92;22.50;;;;;;;1.66;81.08;100858.05;1790604;80;27491;-60
2021/10/14 04:34:08;;;;;;;73.80;22.00;;;;;;;1.66;81.10;100857.25;1790540;80;25638;-60
2021/10/14 04:36:38;;;;;;;63.50;21.97;;;;;;;1.65;81.22;100861.79;1790768;80;25477;-61
2021/10/14 04:39:06;;;;;;;44.55;20.82;;;;;;;1.63;81.37;100861.72;1790577;78;25627;-61
2021/10/14 04:41:33;;;;;;;60.17;20.80;;;;;;;1.61;81.35;100861.95;1790669;80;25685;-61
2021/10/14 04:44:00;;;;;;;76.40;21.15;;;;;;;1.61;81.52;100863.28;1790605;80;27501;-62
2021/10/14 04:46:27;;;;;;;86.02;22.77;;;;;;;1.59;81.51;100864.05;1790501;80;25497;-61
2021/10/14 04:48:54;;;;;;;74.27;23.18;;;;;;;1.58;81.70;100861.62;1790632;80;25434;-61
2021/10/14 04:51:20;;;;;;;59.75;21.52;;;;;;;1.56;81.73;100861.84;1790547;80;25619;-61
2021/10/14 04:53:47;;;;;;;62.73;20.92;;;;;;;1.54;81.84;100859.14;1790653;80;25682;-61
2021/10/14 04:56:14;;;;;;;105.03;22.52;;;;;;;1.55;82.05;100858.08;1790585;80;27525;-61
2021/10/14 04:58:41;;;;;;;76.72;22.37;;;;;;;1.53;82.00;100858.84;1790637;80;25607;-61
2021/10/14 05:01:07;;;;;;;63.70;21.33;;;;;;;1.53;82.19;100864.17;1790698;80;25464;-62
2021/10/14 05:03:37;;;;;;;70.50;22.85;;;;;;;1.52;82.32;100854.58;1790409;79;25517;-62
2021/10/14 05:06:04;;;;;;;64.20;21.75;;;;;;;1.52;82.48;100863.38;1790803;80;25453;-61
2021/10/14 05:08:31;;;;;;;71.10;21.35;;;;;;;1.54;82.71;100847.14;1790690;80;27486;-62
2021/10/14 05:10:57;;;;;;;46.73;21.80;;;;;;;1.55;82.85;100862.08;1790468;78;25689;-61
2021/10/14 05:13:24;;;;;;;82.97;20.68;;;;;;;1.56;82.96;100856.52;1790604;80;25674;-61
2021/10/14 05:15:51;;;;;;;102.10;22.07;;;;;;;1.59;83.20;100861.38;1790568;80;25612;-60
2021/10/14 05:18:17;;;;;;;105.63;22.30;;;;;;;1.59;83.21;100869.38;1790645;80;25604;-60
2021/10/14 05:20:44;;;;;;;72.55;22.32;;;;;;;1.61;83.39;100866.48;1790603;80;27492;-61
2021/10/14 05:23:12;;;;;;;69.82;20.30;;;;;;;1.63;83.53;100872.39;1790429;80;25815;-61
2021/10/14 05:25:40;;;;;;;67.37;21.68;;;;;;;1.64;83.58;100872.69;1790592;80;25471;-60
2021/10/14 05:28:07;;;;;;;71.70;21.85;;;;;;;1.66;83.78;100870.59;1790531;80;25588;-61
2021/10/14 05:30:33;;;;;;;68.02;22.00;;;;;;;1.70;83.93;100873.06;1790675;80;25643;-61
2021/10/14 05:33:01;;;;;;;72.42;22.25;;;;;;;1.73;84.07;100873.94;1790667;80;28151;-61
2021/10/14 05:35:28;;;;;;;69.20;21.68;;;;;;;1.78;84.15;100877.23;1790486;80;26014;-61
2021/10/14 05:37:55;;;;;;;78.42;24.72;;;;;;;1.80;84.19;100881.27;1790572;80;25611;-61
2021/10/14 05:40:22;;;;;;;70.65;22.75;;;;;;;1.83;84.38;100876.00;1790457;78;26065;-61
2021/10/14 05:42:50;;;;;;;74.37;23.20;;;;;;;1.86;84.42;100884.87;1790553;80;25690;-61
2021/10/14 05:45:18;;;;;;;67.32;22.73;;;;;;;1.89;84.58;100883.58;1790541;80;28139;-61
2021/10/14 05:47:45;;;;;;;59.10;20.12;;;;;;;1.94;84.75;100890.34;1790576;80;25445;-61
2021/10/14 05:50:13;;;;;;;62.58;22.22;;;;;;;1.95;84.76;100885.31;1790542;80;25542;-60
2021/10/14 05:52:40;;;;;;;99.72;23.55;;;;;;;2.01;84.96;100883.01;1790536;80;26081;-60
2021/10/14 05:55:07;;;;;;;61.10;21.82;;;;;;;2.06;85.47;100883.14;1790589;80;25604;-60
2021/10/14 05:57:34;;;;;;;70.28;23.75;;;;;;;2.11;85.26;100883.73;1790586;80;27587;-61
2021/10/14 06:00:02;;;;;;;92.00;22.42;;;;;;;2.15;85.22;100893.70;1790472;80;25770;-61
2021/10/14 06:02:29;;;;;;;66.45;21.93;;;;;;;2.19;85.37;100888.70;1790519;80;25686;-60
2021/10/14 06:04:56;;;;;;;68.25;20.43;;;;;;;2.22;85.32;100887.70;1790437;80;25627;-60
2021/10/14 06:07:25;;;;;;;48.73;21.33;;;;;;;2.24;85.24;100886.93;1790576;80;25694;-60
2021/10/14 06:09:52;;;;;;;59.33;22.32;;;;;;;2.27;85.36;100888.86;1790664;78;27493;-60
2021/10/14 06:12:20;;;;;;;75.05;23.27;;;;;;;2.28;85.35;100888.59;1790461;80;25619;-61
2021/10/14 06:14:47;;;;;;;67.65;22.25;;;;;;;2.33;85.62;100899.36;1790537;80;25532;-60
2021/10/14 06:17:13;;;;;;;61.98;22.55;;;;;;;2.36;85.71;100904.23;1790517;80;26191;-62
2021/10/14 06:19:40;;;;;;;85.22;24.12;;;;;;;2.38;85.57;100886.14;1790588;80;25687;-61
2021/10/14 06:22:07;;;;;;;75.90;23.55;;;;;;;2.46;85.93;100906.82;1790540;80;27501;-61
2021/10/14 06:24:34;;;;;;;77.42;22.45;;;;;;;2.50;85.78;100898.60;1790520;80;25832;-61
2021/10/14 06:27:01;;;;;;;60.83;22.05;;;;;;;2.49;85.57;100893.00;1790515;80;25595;-61
2021/10/14 06:29:30;;;;;;;80.42;22.50;;;;;;;2.54;85.81;100897.89;1790340;80;26151;-61
2021/10/14 06:31:57;;;;;;;64.50;21.07;;;;;;;2.57;85.72;100897.92;1790632;80;26276;-61
2021/10/14 06:34:24;;;;;;;49.05;20.27;;;;;;;2.60;85.79;100908.93;1790549;80;28282;-61
2021/10/14 06:36:50;;;;;;;84.15;22.75;;;;;;;2.61;85.66;100907.89;1790467;80;25619;-61
2021/10/14 06:39:17;;;;;;;57.23;23.12;;;;;;;2.65;85.85;100898.07;1790513;78;25544;-61
2021/10/14 06:41:44;;;;;;;51.45;21.07;;;;;;;2.66;85.83;100901.84;1790504;80;26122;-61
2021/10/14 06:44:11;;;;;;;56.73;22.77;;;;;;;2.70;86.07;100904.30;1790532;80;25593;-61
2021/10/14 06:46:39;;;;;;;58.98;23.02;;;;;;;2.78;86.34;100907.11;1790545;80;28075;-61
2021/10/14 06:49:06;;;;;;;71.10;23.12;;;;;;;2.86;86.68;100908.05;1790459;80;25453;-61
2021/10/14 06:51:34;;;;;;;49.10;22.77;;;;;;;2.94;86.41;100904.16;1790542;80;25718;-62
2021/10/14 06:54:00;;;;;;;68.35;22.98;;;;;;;2.97;86.24;100902.34;1790506;80;25507;-62
2021/10/14 06:56:27;;;;;;;43.13;23.40;;;;;;;3.03;86.62;100904.05;1790563;80;25457;-62
2021/10/14 06:58:55;;;;;;;49.93;23.55;;;;;;;3.10;86.59;100907.36;1790540;80;28099;-62
2021/10/14 07:01:22;;;;;;;53.58;25.50;;;;;;;3.23;87.03;100908.08;1790452;80;25983;-61
2021/10/14 07:03:49;;;;;;;55.48;25.02;;;;;;;3.34;87.06;100900.50;1790499;80;25672;-61
2021/10/14 07:06:16;;;;;;;47.08;24.50;;;;;;;3.39;86.56;100902.41;1796316;79;26069;-61
2021/10/14 07:08:42;;;;;;;55.55;24.20;;;;;;;3.42;86.21;100907.28;1796393;78;25506;-62
2021/10/14 07:11:09;;;;;;;48.78;23.10;;;;;;;3.45;86.20;100910.27;1796499;79;27562;-62
2021/10/14 07:13:37;;;;;;;48.68;23.62;;;;;;;3.53;86.62;100915.73;1796393;79;26046;-62
2021/10/14 07:16:05;;;;;;;48.87;23.95;;;;;;;3.61;86.53;100912.64;1796385;79;25465;-62
2021/10/14 07:18:32;;;;;;;45.23;21.93;;;;;;;3.65;86.27;100912.95;1796362;79;25587;-62
2021/10/14 07:20:58;;;;;;;47.00;22.22;;;;;;;3.68;86.20;100908.45;1796414;79;25682;-62
2021/10/14 07:23:25;;;;;;;45.55;22.55;;;;;;;3.71;85.99;100920.80;1796379;79;27483;-61
2021/10/14 07:25:52;;;;;;;49.80;22.30;;;;;;;3.70;85.80;100919.17;1796284;79;27296;-61
2021/10/14 07:28:19;;;;;;;45.60;22.80;;;;;;;3.72;86.17;100921.07;1796355;79;25494;-61
2021/10/14 07:30:46;;;;;;;39.80;21.48;;;;;;;3.72;85.84;100918.39;1796361;79;25622;-61
2021/10/14 07:33:15;;;;;;;43.95;22.70;;;;;;;3.75;86.11;100923.80;1796412;79;25643;-62
2021/10/14 07:35:41;;;;;;;47.90;21.90;;;;;;;3.80;86.28;100921.69;1796716;79;27485;-61
2021/10/14 07:38:11;;;;;;;42.55;23.52;;;;;;;3.93;87.16;100918.14;1796307;79;25764;-61
2021/10/14 07:40:41;;;;;;;44.65;24.02;;;;;;;4.08;87.13;100923.39;1796414;78;25675;-61
2021/10/14 07:43:12;;;;;;;44.90;25.77;;;;;;;4.18;86.85;100926.72;1796555;79;26222;-61
2021/10/14 07:45:41;;;;;;;42.80;24.45;;;;;;;4.29;87.17;100923.91;1796139;79;25449;-61
2021/10/14 07:48:08;;;;;;;43.50;23.92;;;;;;;4.41;87.52;100921.09;1796505;79;27584;-61
2021/10/14 07:50:36;;;;;;;42.15;23.47;;;;;;;4.52;86.70;100925.20;1796261;79;25726;-61
2021/10/14 07:53:14;;;;;;;41.42;23.42;;;;;;;4.52;86.18;100925.20;1796347;79;25594;-60
2021/10/14 07:55:41;;;;;;;46.73;24.90;;;;;;;4.57;86.37;100927.94;1796104;79;25543;-60
2021/10/14 07:58:08;;;;;;;43.60;23.77;;;;;;;4.67;86.65;100931.52;1796386;79;25538;-61
2021/10/14 08:00:36;;;;;;;38.88;23.70;;;;;;;4.74;86.39;100923.27;1796337;79;27475;-61
2021/10/14 08:03:05;;;;;;;45.07;24.20;;;;;;;4.77;85.82;100929.47;1796476;79;25497;-61
2021/10/14 08:05:51;;;;;;;48.35;24.75;;;;;;;4.89;86.04;100943.22;1666761;86;25637;-60
2021/10/14 08:08:19;;;;;;;42.35;24.87;;;;;;;4.84;85.53;100930.60;1666815;86;25611;-60
2021/10/14 08:10:47;;;;;;;42.80;24.92;;;;;;;4.85;85.70;100920.97;1665591;86;25572;-59
2021/10/14 08:13:14;;;;;;;42.70;23.60;;;;;;;4.90;85.60;100922.86;1665465;86;27571;-59
2021/10/14 08:15:42;;;;;;;45.35;24.60;;;;;;;4.91;85.14;100924.49;1665398;86;25544;-60
2021/10/14 08:18:08;;;;;;;41.20;23.77;;;;;;;4.94;85.24;100919.13;1665459;86;25640;-62
2021/10/14 08:20:36;;;;;;;43.40;24.87;;;;;;;5.03;85.48;100919.76;1665478;86;25574;-62
2021/10/14 08:23:03;;;;;;;45.88;24.15;;;;;;;5.13;85.73;100922.26;1665470;86;25555;-61
2021/10/14 08:25:30;;;;;;;47.53;25.27;;;;;;;5.42;86.78;100920.84;1665491;86;27483;-61
2021/10/14 08:27:56;;;;;;;50.40;26.25;;;;;;;5.68;87.18;100917.50;1665384;86;25581;-61
2021/10/14 08:30:23;;;;;;;50.40;28.32;;;;;;;6.02;87.22;100919.83;1665543;86;25618;-61
2021/10/14 08:32:52;;;;;;;44.90;26.02;;;;;;;6.42;88.53;100915.13;1665461;86;26111;-61
2021/10/14 08:35:19;;;;;;;42.95;25.88;;;;;;;7.07;88.15;100915.43;1665441;86;25631;-60
2021/10/14 08:37:47;;;;;;;40.10;23.73;;;;;;;7.30;86.11;100907.87;1665553;86;27528;-61
2021/10/14 08:40:16;;;;;;;43.58;25.02;;;;;;;7.46;84.21;100905.97;1665416;86;25721;-60
2021/10/14 08:42:43;;;;;;;44.67;24.87;;;;;;;7.99;87.12;100902.83;1698442;81;25600;-61
2021/10/14 08:45:13;;;;;;;40.95;23.45;;;;;;;8.57;85.63;100902.26;1754684;81;25608;-61
2021/10/14 08:47:40;;;;;;;40.38;22.95;;;;;;;9.32;86.45;100903.79;1754893;81;25648;-61
2021/10/14 08:50:10;;;;;;;35.60;20.97;;;;;;;10.00;82.80;100904.66;1754696;81;27864;-62
2021/10/14 08:52:38;;;;;;;;;;;;;;;10.54;82.42;100905.27;1757263;81;25475;-61
2021/10/14 08:55:06;;;;;;;33.05;19.62;;;;;;;10.87;79.87;100899.36;1754762;81;25491;-60
2021/10/14 08:58:43;;;;;;;38.00;22.17;;;;;;;10.89;77.39;100892.30;1754695;81;25519;-60
2021/10/14 09:01:13;;;;;;;31.02;20.40;;;;;;;11.01;76.98;100887.20;1754782;81;25627;-61
2021/10/14 09:04:32;;;;;;;28.42;18.25;;;;;;;11.49;76.53;100877.41;1756405;80;28195;-60
2021/10/14 09:07:13;;;;;;;28.57;19.42;;;;;;;11.98;75.09;100875.64;1783141;80;25805;-60
2021/10/14 09:10:00;;;;;;;29.42;18.75;;;;;;;12.65;75.25;100875.75;1783077;80;25513;-61
2021/10/14 09:12:34;;;;;;;30.17;18.65;;;;;;;13.10;74.14;100876.82;1783065;80;25603;-61
2021/10/14 09:15:12;;;;;;;24.60;18.00;;;;;;;13.38;71.86;100867.40;1782499;80;25545;-62
2021/10/14 09:17:52;;;;;;;28.80;18.12;;;;;;;13.88;71.17;100866.26;1782083;80;27660;-60
2021/10/14 09:20:27;;;;;;;26.77;16.60;;;;;;;14.41;70.16;100865.73;1782973;80;25508;-61
2021/10/14 09:23:16;;;;;;;24.92;16.52;;;;;;;14.75;69.06;100875.81;1783102;80;25665;-61
2021/10/14 09:25:50;;;;;;;29.67;17.92;;;;;;;15.20;67.05;100860.95;1783106;80;25514;-61
2021/10/14 09:28:24;;;;;;;23.90;16.25;;;;;;;15.49;65.54;100853.39;1781949;80;25611;-62
2021/10/14 09:31:01;;;;;;;24.02;15.43;;;;;;;15.69;64.90;100853.19;1783102;80;27545;-61
2021/10/14 09:33:46;;;;;;;22.32;15.05;;;;;;;16.06;64.32;100850.73;1782991;80;25631;-61
2021/10/14 09:36:28;;;;;;;19.85;14.55;;;;;;;16.40;59.48;100848.86;1783055;80;25666;-62
2021/10/14 09:39:03;;;;;;;22.20;13.80;;;;;;;16.32;60.03;100842.11;1755231;80;25718;-62
2021/10/14 09:41:43;;;;;;;19.35;13.65;;;;;;;16.77;61.07;100841.34;1783107;80;25640;-61
2021/10/14 09:44:16;;;;;;;21.82;14.60;;;;;;;17.41;59.21;100851.51;1783134;80;27565;-62
2021/10/14 09:46:46;;;;;;;18.73;13.18;;;;;;;17.69;58.60;100840.10;1782882;80;25516;-61
2021/10/14 09:49:53;;;;;;;21.62;13.05;;;;;;;18.14;56.29;100841.06;1783067;80;25648;-62
2021/10/14 09:52:20;;;;;;;16.27;11.70;;;;;;;18.33;56.57;100831.41;1754497;80;25640;-61
2021/10/14 09:55:06;;;;;;;16.32;12.23;;;;;;;18.60;53.88;100840.19;1783071;80;25456;-61
2021/10/14 09:57:34;;;;;;;19.37;11.18;;;;;;;18.71;53.87;100839.67;1783003;80;27423;-61
2021/10/14 10:00:00;;;;;;;17.00;11.35;;;;;;;18.72;52.19;100842.06;1782949;80;25695;-60
2021/10/14 10:02:28;;;;;;;15.70;10.82;;;;;;;18.97;50.44;100841.97;1783036;80;25454;-60
2021/10/14 10:04:54;;;;;;;14.53;10.78;;;;;;;18.81;50.19;100848.20;1782975;80;25783;-60
2021/10/14 10:07:21;;;;;;;13.58;10.23;;;;;;;18.66;49.67;100836.05;1785346;80;25695;-60
2021/10/14 10:09:49;;;;;;;15.13;10.90;;;;;;;18.91;49.89;100835.93;1785854;80;28256;-60
2021/10/14 10:12:16;;;;;;;13.93;10.05;;;;;;;19.41;50.88;100830.90;1785705;80;25655;-60
2021/10/14 10:14:43;;;;;;;17.65;11.88;;;;;;;19.70;49.76;100836.47;1785775;80;25545;-61
2021/10/14 10:17:11;;;;;;;15.28;11.78;;;;;;;19.61;48.40;100835.84;1785744;80;25488;-59
2021/10/14 10:19:50;;;;;;;15.68;11.18;;;;;;;19.41;47.85;100828.16;1785802;80;25514;-60
2021/10/14 10:22:43;;;;;;;18.87;12.80;;;;;;;19.51;47.71;100827.61;1786051;80;27543;-61
2021/10/14 10:25:29;;;;;;;14.78;11.75;;;;;;;19.55;46.06;100818.09;1785690;80;25651;-62
2021/10/14 10:27:58;;;;;;;15.50;11.40;;;;;;;19.07;46.80;100807.73;1785767;80;25595;-62
2021/10/14 10:30:37;;;;;;;16.67;11.63;;;;;;;18.76;45.80;100811.47;1785733;80;25630;-61
2021/10/14 10:33:07;;;;;;;14.00;11.33;;;;;;;18.42;46.01;100806.03;1785980;80;25481;-61
2021/10/14 10:35:48;;;;;;;14.58;10.95;;;;;;;18.27;48.31;100808.97;1785823;80;28101;-60
2021/10/14 10:38:27;;;;;;;17.87;11.73;;;;;;;18.50;48.11;100805.67;1785717;80;25766;-60
2021/10/14 10:40:56;;;;;;;16.93;10.55;;;;;;;18.70;46.18;100796.42;1785881;80;25691;-59
2021/10/14 10:43:29;;;;;;;;;;;;;;;18.99;47.31;100799.33;1788382;80;26074;-60
2021/10/14 10:46:07;;;;;;;13.25;9.50;;;;;;;19.51;47.68;100787.83;1785866;80;25687;-60
2021/10/14 10:48:40;;;;;;;12.18;8.10;;;;;;;19.97;45.87;100783.13;1785811;80;27463;-60
2021/10/14 10:51:11;;;;;;;12.18;8.13;;;;;;;19.60;42.78;100781.55;1785727;80;25683;-60
2021/10/14 10:53:49;;;;;;;10.30;7.25;;;;;;;19.16;44.46;100782.31;1782789;80;25703;-60
2021/10/14 10:56:34;;;;;;;9.55;7.28;;;;;;;19.00;42.66;100781.75;1783778;80;25598;-60
2021/10/14 10:59:06;;;;;;;8.20;6.45;;;;;;;18.46;41.84;100774.08;1785981;80;25529;-60
2021/10/14 11:01:32;;;;;;;11.57;8.03;;;;;;;18.26;44.49;100767.66;1785790;80;27454;-60
2021/10/14 11:04:04;;;;;;;10.40;7.12;;;;;;;18.67;44.55;100762.87;1785664;80;25804;-59
2021/10/14 11:06:34;;;;;;;9.85;7.17;;;;;;;18.67;44.27;100769.72;1757567;80;25500;-59
2021/10/14 11:09:05;;;;;;;;;;;;;;;18.27;43.74;100757.73;1785393;80;25626;-60
2021/10/14 11:11:35;;;;;;;10.30;7.20;;;;;;;17.48;42.95;100760.91;1782864;80;25790;-59
2021/10/14 11:17:25;;;;;;;10.03;6.90;;;;;;;15.90;45.15;100741.97;1782596;80;25926;-59
2021/10/14 11:20:10;;;;;;;10.15;6.75;;;;;;;15.13;46.21;100748.38;1782824;80;25549;-60
2021/10/14 11:22:36;;;;;;;11.80;8.25;;;;;;;14.56;47.39;100750.13;1782912;80;26202;-58
2021/10/14 11:25:16;;;;;;;10.72;7.95;;;;;;;14.26;48.63;100754.66;1782780;80;25718;-59
2021/10/14 11:27:45;;;;;;;;;;;;;;;13.95;49.10;100747.49;1785533;80;27540;-59
2021/10/14 11:30:21;;;;;;;15.95;9.80;;;;;;;13.70;49.94;100748.52;1782785;80;25624;-58